Arbyrd, Missouri
Current Conditions -  °F | °C
As of 9:09 AM on Friday 31 Oct 2014 (Local Time) from KHKA Reporting Station
Broken Clouds Broken Clouds  
Wind Chill: 51°   Ceiling: 1400
Heat Index: 51°   Visibility: 10mi
Dew Point: 48°   Wind: 25mph
Humidity: 89%   Direction: 360°N
Pressure: 30.13"   Gusts: NA
Location:  36.05°N, 90.24°W
Report Text: KHKA 311409Z AUTO 36022KT 10SM BKN014 11/09 A3013 RMK AO2 PK WND 35027/1404 T01060089
Loading
Personal Weather Stations






























Interactive Weather Map
Tropical Storm Tracking
New forecast layout! Learn more

10-Day Weather Forecast

Advertisements
Track Severe Weather on mobile